vendredi 30 novembre 2018

Vous pouvez trouver Le classement original sur : www.otopservices.be  
 
LA CORRIDA DE CHASTRE
DISTANCE : 4.00 km
vendredi 30 novembre 2018
 
Place dos NOM Catégorie Pl/cat temps temps/km Vitesse
01:00:00              
1 381 ANTOINE LUYCKX ESPOIR H 1 00:14:03 03:31 17.08
2 382 SEBASTIEN MAHIA SENIOR H 1 00:14:08 03:32 16.98
3 243 FREDERIC PONCELET VETERAN 1 1 00:14:16 03:34 16.82
4 62 SÉBASTIEN SCHREURS VETERAN 1 2 00:14:42 03:41 16.33
5 252 TOM WOUTERS ESPOIR H 2 00:15:28 03:52 15.52
6 359 MATTHIEU MICHELS SENIOR H 2 00:15:35 03:54 15.40
7 101 BASILE ISERENTANT ESPOIR H 3 00:15:51 03:58 15.14
8 367 KARIM SLIMANI SENIOR H 3 00:15:57 03:59 15.05
9 156 ESTEBAN GUERY ESPOIR H 4 00:16:12 04:03 14.81
10 167 TOM JACQUES DE DIXMUDE ESPOIR H 5 00:16:17 04:04 14.74
11 140 SIMON THIRY ESPOIR H 6 00:16:34 04:09 14.49
12 281 BAPTISTE STEPHENNE ESPOIR H 7 00:16:45 04:11 14.33
13 218 THIERRY DEBRUYN VÉTÉRAN 2 1 00:16:47 04:12 14.30
14 241 STEPHANE FALLIER VETERAN 1 3 00:16:50 04:13 14.26
15 177 LUC PIGNOLET VETERAN 3 1 00:17:12 04:18 13.95
16 91 OSCAR DOPCHIE ESPOIR H 8 00:17:15 04:19 13.91
17 1027 EVA ALSTEEN ESPOIR D 1 00:17:17 04:19 13.89
18 217 IWGA MACKONIENE AINÉE 1 1 00:17:19 04:20 13.86
19 17 ESTEBAN GARCIA LOPEZ ESPOIR H 9 00:17:24 04:21 13.79
20 18 FRANÇOIS-DAVID GARCIA VETERAN 1 4 00:17:35 04:24 13.65
21 102 MATHEO LAGNEAU ESPOIR H 10 00:17:59 04:30 13.35
22 57 NOLAN ROUSSEAU ESPOIR H 11 00:18:06 04:32 13.26
23 294 MATHIEU LEDENT ESPOIR H 12 00:18:26 04:37 13.02
24 211 MICHAEL MARCHAL VETERAN 1 5 00:19:27 04:52 12.34
25 325 MARIUS LEDENT ESPOIR H 13 00:19:41 04:55 12.19
26 103 SANDRINE MARTINOT AINÉE 1 2 00:19:46 04:57 12.14
27 269 VIRGINIE SEGERS AINÉE 1 3 00:19:54 04:59 12.06
28 267 XAVIER MINJIER SENIOR H 4 00:20:03 05:01 11.97
29 238 LOUISE CHARLIER ESPOIR D 2 00:20:35 05:09 11.66
30 186 NATHALIE HAESENNE AINÉE 1 4 00:21:02 05:16 11.41
31 270 PATRICK BAUMONT VÉTÉRAN 2 2 00:21:28 05:22 11.18
32 338 LILY SIMONET ESPOIR D 3 00:21:45 05:26 11.03
33 344 MANON BATAILLE SENIOR D 1 00:21:45 05:26 11.03
34 228 OLIVIER FABES VETERAN 1 6 00:21:56 05:29 10.94
35 242 CLOVIS FALLIER ESPOIR H 14 00:22:09 05:32 10.84
36 245 MUJO HALILBASIC SENIOR H 5 00:22:20 05:35 10.75
37 331 PAUL LEWYCKYS VETERAN 1 7 00:22:21 05:35 10.74
38 99 JULIE GUYETTE ESPOIR D 4 00:22:22 05:35 10.73
39 336 FLORALINE GEORGES ESPOIR D 5 00:22:22 05:35 10.73
40 318 JULIE GUERLUS ESPOIR D 6 00:22:23 05:36 10.72
41 264 AMANDINE NOEL ESPOIR D 7 00:22:40 05:40 10.59
42 263 CHRISTOPHE NOEL VETERAN 1 8 00:22:42 05:40 10.57
43 293 CHRISTIAN LEDENT VETERAN 1 9 00:23:02 05:46 10.42
44 324 MICHEL LEDENT VETERAN 1 10 00:23:03 05:46 10.41
45 376 THIERRY CHAMPAGNE VETERAN 1 11 00:23:40 05:55 10.14
46 372 JOSEPH MERCENIER ESPOIR H 15 00:24:04 06:01 9.97
47 82 BRUNO VAN KERCKHOVEN VETERAN 1 12 00:24:06 06:01 9.96
48 81 JANNA VAN KERCKHOVEN ESPOIR D 8 00:24:07 06:02 9.95
49 261 ALEX GODEFROID VETERAN 3 2 00:24:22 06:06 9.85
50 317 ROXANE FIVET ESPOIR D 9 00:24:30 06:07 9.80
51 193 PAULINE STEINIER ESPOIR D 10 00:24:31 06:08 9.79
52 259 MANON DE BOECK ESPOIR D 11 00:24:32 06:08 9.78
53 77 PASCALE ENGELS AINÉE 1 5 00:24:57 06:14 9.62
54 258 VERONIQUE LEONARD AINÉE 1 6 00:25:00 06:15 9.60
55 339 EVELYNE MICHEL AINÉE 3 1 00:25:11 06:18 9.53
56 271 SONIA DE JONCKER AINÉE 1 7 00:25:13 06:18 9.52
57 43 SOPHIE DEWAELE AINÉE 1 8 00:25:20 06:20 9.47
58 75 MARGAUX NAMUROIS SENIOR D 2 00:26:07 06:32 9.19
59 118 EDDY STACHE VÉTÉRAN 2 3 00:26:23 06:36 9.10
60 1005 LOU ISERENTANT ESPOIR D 12 00:26:26 06:36 9.08
61 1020 SACHA SIBOMANA ESPOIR H 16 00:26:27 06:37 9.07
62 1018 ELINE DEVILLE ESPOIR D 13 00:26:28 06:37 9.07
63 291 SEBASTIEN MEUL VETERAN 1 13 00:26:32 06:38 9.05
64 142 SÉVERINE BROGNEAUX AINÉE 1 9 00:27:04 06:46 8.87
65 169 THOMAS DEVILLE SENIOR D 3 00:27:30 06:52 8.73
66 108 MURIEL LABIAU AINÉE 2 1 00:27:36 06:54 8.70
67 180 SYLVIE BIKA AINÉE 2 2 00:27:44 06:56 8.65
68 187 ANDY LANOTTE SENIOR H 6 00:29:22 07:20 8.17
69 384 NATHALIE DRAELANTS AINÉE 2 3 00:33:14 08:18 7.22
70 163 JESSICA DEVILLE SENIOR D 4 00:34:03 08:31 7.05